Jacqueline Cochran Regional Airport Palm Springs US
ICAO: KTRM
IATA: TRM
Category: Medium
Scheduled Services: No

Elevation: -115 ft
TransAlt. 18000 ft.

Airport Communications:
PALM SPRINGS APP/DEP:135.275
ASOS:118.325
RIVERSIDE RDO:122.3
CTAF/UNICOM:123

KTRM Zoom In..

If you have problems with the map follow the link
https://www.worldairports.se/pages/airport.php?
ICAO=KTRM

Runways:

(A) RW 12 length 4995 ft width 100 ft
---- / hdg 122

(B) RW 17 length 8500 ft width 150 ft
---- / hdg 167

(C) RW 30 length 4995 ft width 100 ft
---- / hdg 302

(D) RW 35 length 8500 ft width 150 ft
---- / hdg 347

Location; KTRM
Day. 18 / Time. 23.52 Zulu
* Altimeter: 29.94
* Temperature: 32° c. 89.6°f.
* Wind from: KTR° Speed M kn.
Dewpoint: 01° c.
Visibility: 10 Statute Miles.
Clouds: Clear (automated report).

KTRM 182352Z AUTO 27005KT 10SM CLR 32/01 A2994 RMK AO2 SLP141 T03170006 10322 20289 56013


Wind From KTR°
Speed M kn.

 
 
jpsmedia.com for Web Design worldairports.se 2018   terms of use